sensor_id;sensor_type;location;lat;lon;timestamp;pressure;altitude;pressure_sealevel;temperature;humidity
79131;BME280;72396;45.194;9.142;2024-02-23T00:00:29;99140.00;;;11.56;72.11
79131;BME280;72396;45.194;9.142;2024-02-23T00:02:54;99129.34;;;11.58;72.07
79131;BME280;72396;45.194;9.142;2024-02-23T00:05:22;99117.59;;;11.20;72.84
79131;BME280;72396;45.194;9.142;2024-02-23T00:07:47;99129.19;;;11.17;73.66
79131;BME280;72396;45.194;9.142;2024-02-23T00:10:13;99130.69;;;11.36;72.61
79131;BME280;72396;45.194;9.142;2024-02-23T00:12:38;99115.59;;;11.23;72.83
79131;BME280;72396;45.194;9.142;2024-02-23T00:15:04;99131.34;;;11.11;73.55
79131;BME280;72396;45.194;9.142;2024-02-23T00:17:29;99123.25;;;11.43;72.98
79131;BME280;72396;45.194;9.142;2024-02-23T00:19:55;99114.84;;;11.50;72.51
79131;BME280;72396;45.194;9.142;2024-02-23T00:22:20;99101.34;;;11.55;72.07
79131;BME280;72396;45.194;9.142;2024-02-23T00:24:45;99103.53;;;11.48;72.02
79131;BME280;72396;45.194;9.142;2024-02-23T00:27:11;99118.16;;;11.54;71.99
79131;BME280;72396;45.194;9.142;2024-02-23T00:29:36;99102.84;;;11.59;72.12
79131;BME280;72396;45.194;9.142;2024-02-23T00:32:02;99075.66;;;11.44;72.38
79131;BME280;72396;45.194;9.142;2024-02-23T00:34:27;99103.41;;;11.50;72.30
79131;BME280;72396;45.194;9.142;2024-02-23T00:36:55;99081.28;;;11.52;72.20
79131;BME280;72396;45.194;9.142;2024-02-23T00:39:20;99079.78;;;11.48;72.45
79131;BME280;72396;45.194;9.142;2024-02-23T00:41:46;99079.50;;;11.53;72.11
79131;BME280;72396;45.194;9.142;2024-02-23T00:44:11;99072.72;;;11.34;72.41
79131;BME280;72396;45.194;9.142;2024-02-23T00:46:37;99058.94;;;11.44;72.15
79131;BME280;72396;45.194;9.142;2024-02-23T00:49:02;99064.91;;;11.33;72.26
79131;BME280;72396;45.194;9.142;2024-02-23T00:51:28;99069.09;;;11.50;71.84
79131;BME280;72396;45.194;9.142;2024-02-23T00:53:53;99054.63;;;11.28;71.96
79131;BME280;72396;45.194;9.142;2024-02-23T00:56:18;99071.41;;;11.42;72.39
79131;BME280;72396;45.194;9.142;2024-02-23T00:58:44;99075.31;;;11.49;72.07
79131;BME280;72396;45.194;9.142;2024-02-23T01:01:09;99057.16;;;11.44;71.80
79131;BME280;72396;45.194;9.142;2024-02-23T01:03:34;99051.09;;;11.42;71.79
79131;BME280;72396;45.194;9.142;2024-02-23T01:06:00;99052.81;;;11.43;71.66
79131;BME280;72396;45.194;9.142;2024-02-23T01:08:25;99072.31;;;11.55;71.47
79131;BME280;72396;45.194;9.142;2024-02-23T01:10:51;99050.00;;;11.32;72.23
79131;BME280;72396;45.194;9.142;2024-02-23T01:13:16;99043.88;;;11.31;72.12
79131;BME280;72396;45.194;9.142;2024-02-23T01:15:42;99046.81;;;11.27;71.91
79131;BME280;72396;45.194;9.142;2024-02-23T01:18:07;99034.75;;;11.22;72.57
79131;BME280;72396;45.194;9.142;2024-02-23T01:20:33;99017.19;;;11.36;72.09
79131;BME280;72396;45.194;9.142;2024-02-23T01:22:58;99003.94;;;11.23;72.28
79131;BME280;72396;45.194;9.142;2024-02-23T01:25:24;98993.41;;;11.08;72.36
79131;BME280;72396;45.194;9.142;2024-02-23T01:27:49;98993.50;;;11.07;72.42
79131;BME280;72396;45.194;9.142;2024-02-23T01:30:15;99000.47;;;11.08;72.80
79131;BME280;72396;45.194;9.142;2024-02-23T01:32:40;99016.53;;;11.32;72.28
79131;BME280;72396;45.194;9.142;2024-02-23T01:35:06;99016.50;;;11.47;71.74
79131;BME280;72396;45.194;9.142;2024-02-23T01:37:32;98996.94;;;11.36;71.51
79131;BME280;72396;45.194;9.142;2024-02-23T01:39:59;98986.75;;;11.30;72.15
79131;BME280;72396;45.194;9.142;2024-02-23T01:42:24;98995.28;;;11.21;72.40
79131;BME280;72396;45.194;9.142;2024-02-23T01:44:51;98976.03;;;11.19;72.54
79131;BME280;72396;45.194;9.142;2024-02-23T01:47:16;98965.56;;;11.32;72.54
79131;BME280;72396;45.194;9.142;2024-02-23T01:49:42;98951.81;;;11.54;71.78
79131;BME280;72396;45.194;9.142;2024-02-23T01:52:07;98949.56;;;11.48;71.93
79131;BME280;72396;45.194;9.142;2024-02-23T01:54:33;98941.13;;;11.43;71.95
79131;BME280;72396;45.194;9.142;2024-02-23T01:57:00;98928.88;;;11.42;72.16
79131;BME280;72396;45.194;9.142;2024-02-23T01:59:25;98924.88;;;11.49;71.71
79131;BME280;72396;45.194;9.142;2024-02-23T02:01:51;98931.16;;;11.33;71.77
79131;BME280;72396;45.194;9.142;2024-02-23T02:04:17;98934.47;;;11.50;71.93
79131;BME280;72396;45.194;9.142;2024-02-23T02:06:45;98922.97;;;11.51;71.50
79131;BME280;72396;45.194;9.142;2024-02-23T02:09:11;98921.59;;;11.45;71.38
79131;BME280;72396;45.194;9.142;2024-02-23T02:11:45;98918.97;;;11.45;71.69
79131;BME280;72396;45.194;9.142;2024-02-23T02:14:11;98917.00;;;11.34;71.73
79131;BME280;72396;45.194;9.142;2024-02-23T02:16:36;98912.84;;;11.17;72.45
79131;BME280;72396;45.194;9.142;2024-02-23T02:19:02;98895.97;;;11.20;72.79
79131;BME280;72396;45.194;9.142;2024-02-23T02:21:27;98907.34;;;11.48;72.59
79131;BME280;72396;45.194;9.142;2024-02-23T02:23:53;98904.31;;;11.54;72.05
79131;BME280;72396;45.194;9.142;2024-02-23T02:26:19;98902.91;;;11.48;72.32
79131;BME280;72396;45.194;9.142;2024-02-23T02:28:44;98888.13;;;11.46;71.62
79131;BME280;72396;45.194;9.142;2024-02-23T02:31:10;98882.63;;;11.49;72.04
79131;BME280;72396;45.194;9.142;2024-02-23T02:33:35;98886.84;;;11.39;72.22
79131;BME280;72396;45.194;9.142;2024-02-23T02:36:00;98886.00;;;11.51;72.33
79131;BME280;72396;45.194;9.142;2024-02-23T02:38:26;98890.16;;;11.55;72.04
79131;BME280;72396;45.194;9.142;2024-02-23T02:40:51;98889.00;;;11.59;71.99
79131;BME280;72396;45.194;9.142;2024-02-23T02:43:16;98889.81;;;11.60;71.83
79131;BME280;72396;45.194;9.142;2024-02-23T02:45:42;98879.03;;;11.50;71.71
79131;BME280;72396;45.194;9.142;2024-02-23T02:48:07;98869.94;;;11.41;72.15
79131;BME280;72396;45.194;9.142;2024-02-23T02:50:32;98869.50;;;11.34;72.37
79131;BME280;72396;45.194;9.142;2024-02-23T02:52:58;98890.25;;;11.54;72.22
79131;BME280;72396;45.194;9.142;2024-02-23T02:55:23;98896.03;;;11.46;72.46
79131;BME280;72396;45.194;9.142;2024-02-23T02:57:48;98887.91;;;11.08;73.49
79131;BME280;72396;45.194;9.142;2024-02-23T03:00:14;98885.13;;;10.83;74.49
79131;BME280;72396;45.194;9.142;2024-02-23T03:02:39;98890.06;;;10.60;75.61
79131;BME280;72396;45.194;9.142;2024-02-23T03:05:05;98893.78;;;10.85;74.96
79131;BME280;72396;45.194;9.142;2024-02-23T03:07:30;98874.94;;;10.91;74.61
79131;BME280;72396;45.194;9.142;2024-02-23T03:09:56;98861.47;;;10.39;76.66
79131;BME280;72396;45.194;9.142;2024-02-23T03:12:21;98869.47;;;10.94;75.09
79131;BME280;72396;45.194;9.142;2024-02-23T03:14:46;98864.38;;;11.05;74.57
79131;BME280;72396;45.194;9.142;2024-02-23T03:17:12;98860.38;;;11.13;74.38
79131;BME280;72396;45.194;9.142;2024-02-23T03:19:38;98835.88;;;11.11;74.13
79131;BME280;72396;45.194;9.142;2024-02-23T03:22:03;98840.13;;;11.13;73.95
79131;BME280;72396;45.194;9.142;2024-02-23T03:24:29;98834.09;;;11.11;74.64
79131;BME280;72396;45.194;9.142;2024-02-23T03:26:55;98836.97;;;11.21;73.98
79131;BME280;72396;45.194;9.142;2024-02-23T03:29:21;98843.94;;;11.22;74.18
79131;BME280;72396;45.194;9.142;2024-02-23T03:31:50;98836.13;;;11.33;73.91
79131;BME280;72396;45.194;9.142;2024-02-23T03:34:15;98822.00;;;11.34;73.47
79131;BME280;72396;45.194;9.142;2024-02-23T03:36:40;98841.31;;;11.35;73.82
79131;BME280;72396;45.194;9.142;2024-02-23T03:39:06;98837.44;;;11.41;73.20
79131;BME280;72396;45.194;9.142;2024-02-23T03:41:32;98850.44;;;11.44;72.96
79131;BME280;72396;45.194;9.142;2024-02-23T03:43:57;98853.28;;;11.41;73.22
79131;BME280;72396;45.194;9.142;2024-02-23T03:46:22;98838.44;;;11.12;74.04
79131;BME280;72396;45.194;9.142;2024-02-23T03:48:48;98831.50;;;11.24;74.20
79131;BME280;72396;45.194;9.142;2024-02-23T03:51:13;98835.59;;;11.28;74.09
79131;BME280;72396;45.194;9.142;2024-02-23T03:53:38;98824.38;;;11.12;74.40
79131;BME280;72396;45.194;9.142;2024-02-23T03:56:04;98826.22;;;11.24;74.13
79131;BME280;72396;45.194;9.142;2024-02-23T03:58:29;98831.00;;;11.04;74.41
79131;BME280;72396;45.194;9.142;2024-02-23T04:00:55;98817.88;;;10.90;75.03
79131;BME280;72396;45.194;9.142;2024-02-23T04:03:21;98831.31;;;11.00;74.49
79131;BME280;72396;45.194;9.142;2024-02-23T04:05:46;98849.28;;;11.07;74.75
79131;BME280;72396;45.194;9.142;2024-02-23T04:08:11;98845.09;;;10.90;74.82
79131;BME280;72396;45.194;9.142;2024-02-23T04:10:37;98854.16;;;11.27;74.31
79131;BME280;72396;45.194;9.142;2024-02-23T04:13:02;98869.19;;;10.99;74.27
79131;BME280;72396;45.194;9.142;2024-02-23T04:15:28;98871.13;;;11.09;74.81
79131;BME280;72396;45.194;9.142;2024-02-23T04:17:53;98862.16;;;11.12;74.01
79131;BME280;72396;45.194;9.142;2024-02-23T04:20:18;98871.66;;;11.15;73.65
79131;BME280;72396;45.194;9.142;2024-02-23T04:22:44;98864.19;;;10.94;73.42
79131;BME280;72396;45.194;9.142;2024-02-23T04:25:09;98858.50;;;11.00;73.71
79131;BME280;72396;45.194;9.142;2024-02-23T04:27:34;98864.44;;;10.76;74.06
79131;BME280;72396;45.194;9.142;2024-02-23T04:30:00;98850.25;;;10.64;74.23
79131;BME280;72396;45.194;9.142;2024-02-23T04:32:25;98864.19;;;10.94;74.31
79131;BME280;72396;45.194;9.142;2024-02-23T04:34:51;98863.91;;;10.99;73.68
79131;BME280;72396;45.194;9.142;2024-02-23T04:37:16;98868.44;;;10.97;73.84
79131;BME280;72396;45.194;9.142;2024-02-23T04:39:43;98869.19;;;10.99;73.49
79131;BME280;72396;45.194;9.142;2024-02-23T04:42:09;98867.25;;;10.88;73.61
79131;BME280;72396;45.194;9.142;2024-02-23T04:44:35;98877.72;;;11.02;73.94
79131;BME280;72396;45.194;9.142;2024-02-23T04:47:00;98877.72;;;11.02;72.98
79131;BME280;72396;45.194;9.142;2024-02-23T04:49:26;98882.47;;;10.97;73.04
79131;BME280;72396;45.194;9.142;2024-02-23T04:51:51;98881.88;;;11.06;73.38
79131;BME280;72396;45.194;9.142;2024-02-23T04:54:16;98871.53;;;11.03;73.49
79131;BME280;72396;45.194;9.142;2024-02-23T04:56:42;98881.25;;;10.88;73.59
79131;BME280;72396;45.194;9.142;2024-02-23T04:59:07;98892.69;;;11.16;73.07
79131;BME280;72396;45.194;9.142;2024-02-23T05:01:36;98891.22;;;11.25;72.74
79131;BME280;72396;45.194;9.142;2024-02-23T05:04:02;98870.78;;;11.29;72.85
79131;BME280;72396;45.194;9.142;2024-02-23T05:06:29;98873.66;;;11.39;72.50
79131;BME280;72396;45.194;9.142;2024-02-23T05:08:54;98880.19;;;11.46;72.65
79131;BME280;72396;45.194;9.142;2024-02-23T05:11:19;98889.59;;;11.50;72.33
79131;BME280;72396;45.194;9.142;2024-02-23T05:13:45;98889.59;;;11.50;72.74
79131;BME280;72396;45.194;9.142;2024-02-23T05:16:10;98887.53;;;11.55;72.46
79131;BME280;72396;45.194;9.142;2024-02-23T05:18:38;98872.94;;;11.49;72.58
79131;BME280;72396;45.194;9.142;2024-02-23T05:21:03;98873.47;;;11.55;72.35
79131;BME280;72396;45.194;9.142;2024-02-23T05:23:29;98866.41;;;11.55;72.33
79131;BME280;72396;45.194;9.142;2024-02-23T05:25:54;98860.56;;;11.50;72.54
79131;BME280;72396;45.194;9.142;2024-02-23T05:28:20;98850.56;;;11.55;72.73
79131;BME280;72396;45.194;9.142;2024-02-23T05:30:45;98851.00;;;11.62;71.86
79131;BME280;72396;45.194;9.142;2024-02-23T05:33:10;98832.81;;;11.57;71.46
79131;BME280;72396;45.194;9.142;2024-02-23T05:35:36;98840.00;;;11.68;72.26
79131;BME280;72396;45.194;9.142;2024-02-23T05:38:02;98819.84;;;11.67;72.08
79131;BME280;72396;45.194;9.142;2024-02-23T05:40:27;98823.31;;;11.68;72.06
79131;BME280;72396;45.194;9.142;2024-02-23T05:42:52;98815.72;;;11.63;72.06
79131;BME280;72396;45.194;9.142;2024-02-23T05:45:18;98817.19;;;11.54;72.19
79131;BME280;72396;45.194;9.142;2024-02-23T05:47:43;98828.78;;;11.39;72.89
79131;BME280;72396;45.194;9.142;2024-02-23T05:50:09;98825.63;;;11.59;72.36
79131;BME280;72396;45.194;9.142;2024-02-23T05:52:35;98816.34;;;11.66;72.29
79131;BME280;72396;45.194;9.142;2024-02-23T05:55:01;98812.00;;;11.65;72.16
79131;BME280;72396;45.194;9.142;2024-02-23T05:57:27;98800.50;;;11.66;72.17
79131;BME280;72396;45.194;9.142;2024-02-23T05:59:53;98807.69;;;11.64;72.18
79131;BME280;72396;45.194;9.142;2024-02-23T06:02:18;98812.53;;;11.58;72.42
79131;BME280;72396;45.194;9.142;2024-02-23T06:04:43;98805.47;;;11.58;72.71
79131;BME280;72396;45.194;9.142;2024-02-23T06:07:09;98815.06;;;11.59;72.46
79131;BME280;72396;45.194;9.142;2024-02-23T06:09:35;98822.25;;;11.57;72.93
79131;BME280;72396;45.194;9.142;2024-02-23T06:12:00;98820.97;;;11.50;73.10
79131;BME280;72396;45.194;9.142;2024-02-23T06:14:25;98800.06;;;11.34;72.59
79131;BME280;72396;45.194;9.142;2024-02-23T06:16:51;98814.41;;;11.30;73.33
79131;BME280;72396;45.194;9.142;2024-02-23T06:19:16;98803.22;;;11.39;72.90
79131;BME280;72396;45.194;9.142;2024-02-23T06:21:41;98796.47;;;11.48;72.77
79131;BME280;72396;45.194;9.142;2024-02-23T06:24:07;98785.69;;;11.51;73.06
79131;BME280;72396;45.194;9.142;2024-02-23T06:26:34;98777.47;;;11.56;72.62
79131;BME280;72396;45.194;9.142;2024-02-23T06:28:59;98796.69;;;11.58;72.69
79131;BME280;72396;45.194;9.142;2024-02-23T06:31:25;98813.78;;;11.52;72.88
79131;BME280;72396;45.194;9.142;2024-02-23T06:33:50;98812.31;;;11.48;72.64
79131;BME280;72396;45.194;9.142;2024-02-23T06:36:17;98811.66;;;11.31;73.12
79131;BME280;72396;45.194;9.142;2024-02-23T06:38:44;98810.19;;;11.40;72.91
79131;BME280;72396;45.194;9.142;2024-02-23T06:41:11;98813.25;;;11.34;72.85
79131;BME280;72396;45.194;9.142;2024-02-23T06:43:36;98822.34;;;11.43;72.98
79131;BME280;72396;45.194;9.142;2024-02-23T06:46:08;98830.69;;;11.62;73.23
79131;BME280;72396;45.194;9.142;2024-02-23T06:48:35;98838.97;;;11.71;72.80
79131;BME280;72396;45.194;9.142;2024-02-23T06:51:00;98843.38;;;11.83;73.07
79131;BME280;72396;45.194;9.142;2024-02-23T06:53:26;98853.13;;;11.83;72.45
79131;BME280;72396;45.194;9.142;2024-02-23T06:55:51;98850.78;;;11.78;72.82
79131;BME280;72396;45.194;9.142;2024-02-23T06:58:16;98859.22;;;11.83;72.83
79131;BME280;72396;45.194;9.142;2024-02-23T07:00:43;98858.81;;;11.89;72.72
79131;BME280;72396;45.194;9.142;2024-02-23T07:03:09;98852.81;;;11.87;72.55
79131;BME280;72396;45.194;9.142;2024-02-23T07:05:35;98855.09;;;11.92;72.52
79131;BME280;72396;45.194;9.142;2024-02-23T07:08:03;98844.97;;;11.86;72.21
79131;BME280;72396;45.194;9.142;2024-02-23T07:10:29;98848.47;;;11.86;72.92
79131;BME280;72396;45.194;9.142;2024-02-23T07:12:54;98854.81;;;11.84;72.46
79131;BME280;72396;45.194;9.142;2024-02-23T07:15:21;98868.00;;;11.84;72.66
79131;BME280;72396;45.194;9.142;2024-02-23T07:17:46;98882.28;;;11.94;72.33
79131;BME280;72396;45.194;9.142;2024-02-23T07:20:13;98902.78;;;11.90;71.28
79131;BME280;72396;45.194;9.142;2024-02-23T07:22:38;98898.59;;;11.60;72.18
79131;BME280;72396;45.194;9.142;2024-02-23T07:25:05;98904.63;;;11.75;72.08
79131;BME280;72396;45.194;9.142;2024-02-23T07:27:30;98919.22;;;11.81;71.32
79131;BME280;72396;45.194;9.142;2024-02-23T07:29:57;98918.19;;;11.71;71.73
79131;BME280;72396;45.194;9.142;2024-02-23T07:32:22;98921.56;;;11.73;71.65
79131;BME280;72396;45.194;9.142;2024-02-23T07:34:47;98921.22;;;11.64;71.93
79131;BME280;72396;45.194;9.142;2024-02-23T07:37:13;98913.50;;;11.61;71.48
79131;BME280;72396;45.194;9.142;2024-02-23T07:39:39;98921.00;;;11.68;71.16
79131;BME280;72396;45.194;9.142;2024-02-23T07:42:04;98922.69;;;11.69;71.23
79131;BME280;72396;45.194;9.142;2024-02-23T07:44:31;98909.91;;;11.62;70.83
79131;BME280;72396;45.194;9.142;2024-02-23T07:46:56;98918.19;;;11.71;71.54
79131;BME280;72396;45.194;9.142;2024-02-23T07:49:23;98905.50;;;11.76;71.20
79131;BME280;72396;45.194;9.142;2024-02-23T07:51:50;98910.25;;;11.71;70.47
79131;BME280;72396;45.194;9.142;2024-02-23T07:54:15;98896.63;;;11.64;70.01
79131;BME280;72396;45.194;9.142;2024-02-23T07:56:40;98898.16;;;11.54;70.45
79131;BME280;72396;45.194;9.142;2024-02-23T07:59:06;98900.28;;;11.61;70.25
79131;BME280;72396;45.194;9.142;2024-02-23T08:01:31;98892.91;;;11.66;70.19
79131;BME280;72396;45.194;9.142;2024-02-23T08:03:57;98895.97;;;11.60;70.16
79131;BME280;72396;45.194;9.142;2024-02-23T08:06:22;98874.63;;;11.63;70.45
79131;BME280;72396;45.194;9.142;2024-02-23T08:08:48;98859.22;;;11.57;70.27
79131;BME280;72396;45.194;9.142;2024-02-23T08:11:13;98893.25;;;11.62;70.42
79131;BME280;72396;45.194;9.142;2024-02-23T08:13:39;98882.47;;;11.65;69.77
79131;BME280;72396;45.194;9.142;2024-02-23T08:16:04;98883.50;;;11.62;70.06
79131;BME280;72396;45.194;9.142;2024-02-23T08:18:31;98890.47;;;11.63;69.84
79131;BME280;72396;45.194;9.142;2024-02-23T08:20:56;98901.25;;;11.60;70.17
79131;BME280;72396;45.194;9.142;2024-02-23T08:23:23;98894.94;;;11.63;69.54
79131;BME280;72396;45.194;9.142;2024-02-23T08:25:49;98895.75;;;11.63;70.16
79131;BME280;72396;45.194;9.142;2024-02-23T08:28:16;98884.66;;;11.58;69.54
79131;BME280;72396;45.194;9.142;2024-02-23T08:30:41;98900.09;;;11.64;70.03
79131;BME280;72396;45.194;9.142;2024-02-23T08:33:06;98888.78;;;11.62;69.73
79131;BME280;72396;45.194;9.142;2024-02-23T08:35:35;98909.09;;;11.75;70.01
79131;BME280;72396;45.194;9.142;2024-02-23T08:38:00;98902.88;;;11.76;69.55
79131;BME280;72396;45.194;9.142;2024-02-23T08:40:26;98897.56;;;11.63;69.87
79131;BME280;72396;45.194;9.142;2024-02-23T08:42:51;98921.22;;;11.64;69.43
79131;BME280;72396;45.194;9.142;2024-02-23T08:45:17;98919.22;;;11.68;69.41
79131;BME280;72396;45.194;9.142;2024-02-23T08:47:42;98913.19;;;11.66;69.75
79131;BME280;72396;45.194;9.142;2024-02-23T08:50:08;98902.50;;;11.68;69.57
79131;BME280;72396;45.194;9.142;2024-02-23T08:52:34;98902.22;;;11.72;69.54
79131;BME280;72396;45.194;9.142;2024-02-23T08:54:59;98902.34;;;11.71;69.52
79131;BME280;72396;45.194;9.142;2024-02-23T08:57:27;98894.59;;;11.68;69.65
79131;BME280;72396;45.194;9.142;2024-02-23T08:59:52;98898.53;;;11.75;69.36
79131;BME280;72396;45.194;9.142;2024-02-23T09:02:18;98914.16;;;11.78;69.56
79131;BME280;72396;45.194;9.142;2024-02-23T09:04:44;98914.06;;;11.79;69.71
79131;BME280;72396;45.194;9.142;2024-02-23T09:07:11;98917.97;;;11.74;69.40
79131;BME280;72396;45.194;9.142;2024-02-23T09:09:36;98920.91;;;11.69;70.06
79131;BME280;72396;45.194;9.142;2024-02-23T09:12:01;98917.00;;;11.62;69.60
79131;BME280;72396;45.194;9.142;2024-02-23T09:14:27;98946.91;;;11.75;69.80
79131;BME280;72396;45.194;9.142;2024-02-23T09:16:52;98942.06;;;11.82;69.50
79131;BME280;72396;45.194;9.142;2024-02-23T09:19:18;98934.75;;;11.73;69.63
79131;BME280;72396;45.194;9.142;2024-02-23T09:21:44;98934.13;;;11.82;69.40
79131;BME280;72396;45.194;9.142;2024-02-23T09:24:10;98936.34;;;11.75;69.54
79131;BME280;72396;45.194;9.142;2024-02-23T09:26:35;98928.75;;;11.71;69.46
79131;BME280;72396;45.194;9.142;2024-02-23T09:29:00;98925.69;;;11.77;69.41
79131;BME280;72396;45.194;9.142;2024-02-23T09:31:26;98931.91;;;11.76;69.35
79131;BME280;72396;45.194;9.142;2024-02-23T09:33:54;98933.50;;;11.78;68.96
79131;BME280;72396;45.194;9.142;2024-02-23T09:36:19;98918.28;;;11.69;69.19
79131;BME280;72396;45.194;9.142;2024-02-23T09:38:44;98920.69;;;11.72;69.60
79131;BME280;72396;45.194;9.142;2024-02-23T09:41:31;98933.50;;;11.78;68.97
79131;BME280;72396;45.194;9.142;2024-02-23T09:43:58;98933.59;;;11.77;69.15
79131;BME280;72396;45.194;9.142;2024-02-23T09:46:25;98930.00;;;11.78;69.20
79131;BME280;72396;45.194;9.142;2024-02-23T09:48:51;98919.34;;;11.79;68.99
79131;BME280;72396;45.194;9.142;2024-02-23T09:51:16;98903.28;;;11.70;69.41
79131;BME280;72396;45.194;9.142;2024-02-23T09:53:43;98919.44;;;11.78;69.14
79131;BME280;72396;45.194;9.142;2024-02-23T09:56:09;98914.25;;;11.63;69.10
79131;BME280;72396;45.194;9.142;2024-02-23T09:58:36;98920.69;;;11.72;69.51
79131;BME280;72396;45.194;9.142;2024-02-23T10:01:03;98925.75;;;11.62;69.02
79131;BME280;72396;45.194;9.142;2024-02-23T10:03:29;98921.94;;;11.66;69.43
79131;BME280;72396;45.194;9.142;2024-02-23T10:05:58;98915.13;;;11.77;68.72
79131;BME280;72396;45.194;9.142;2024-02-23T10:08:24;98919.00;;;11.71;68.05
79131;BME280;72396;45.194;9.142;2024-02-23T10:10:50;98917.31;;;11.70;68.89
79131;BME280;72396;45.194;9.142;2024-02-23T10:13:20;98928.09;;;11.67;68.86
79131;BME280;72396;45.194;9.142;2024-02-23T10:15:49;98930.09;;;11.63;68.59
79131;BME280;72396;45.194;9.142;2024-02-23T10:18:15;98927.44;;;11.63;68.96
79131;BME280;72396;45.194;9.142;2024-02-23T10:20:40;98918.78;;;11.61;68.48
79131;BME280;72396;45.194;9.142;2024-02-23T10:23:07;98916.06;;;11.63;68.68
79131;BME280;72396;45.194;9.142;2024-02-23T10:25:34;98914.25;;;11.63;68.93
79131;BME280;72396;45.194;9.142;2024-02-23T10:28:04;98918.34;;;11.68;68.57
79131;BME280;72396;45.194;9.142;2024-02-23T10:30:30;98899.03;;;11.27;68.17
79131;BME280;72396;45.194;9.142;2024-02-23T10:32:57;98919.56;;;11.36;68.93
79131;BME280;72396;45.194;9.142;2024-02-23T10:35:23;98900.78;;;11.41;69.45
79131;BME280;72396;45.194;9.142;2024-02-23T10:37:50;98920.88;;;11.56;69.11
79131;BME280;72396;45.194;9.142;2024-02-23T10:40:17;98924.59;;;11.66;69.13
79131;BME280;72396;45.194;9.142;2024-02-23T10:42:46;98924.59;;;11.66;69.46
79131;BME280;72396;45.194;9.142;2024-02-23T10:45:18;98915.53;;;11.71;68.85
79131;BME280;72396;45.194;9.142;2024-02-23T10:47:44;98901.25;;;11.73;68.22
79131;BME280;72396;45.194;9.142;2024-02-23T10:50:10;98918.78;;;11.74;68.51
79131;BME280;72396;45.194;9.142;2024-02-23T10:52:41;98932.03;;;11.87;69.23
79131;BME280;72396;45.194;9.142;2024-02-23T10:55:08;98919.97;;;11.83;68.81
79131;BME280;72396;45.194;9.142;2024-02-23T10:57:35;98913.44;;;11.76;68.81
79131;BME280;72396;45.194;9.142;2024-02-23T11:00:00;98919.78;;;11.86;69.23
79131;BME280;72396;45.194;9.142;2024-02-23T11:02:28;98926.25;;;11.95;69.22
79131;BME280;72396;45.194;9.142;2024-02-23T11:04:57;98934.47;;;11.90;68.86
79131;BME280;72396;45.194;9.142;2024-02-23T11:07:23;98941.25;;;11.94;68.88
79131;BME280;72396;45.194;9.142;2024-02-23T11:09:54;98933.97;;;11.98;68.97
79131;BME280;72396;45.194;9.142;2024-02-23T11:12:28;98922.97;;;11.91;69.11
79131;BME280;72396;45.194;9.142;2024-02-23T11:14:58;98936.75;;;11.69;69.56
79131;BME280;72396;45.194;9.142;2024-02-23T11:17:26;98928.75;;;11.84;68.91
79131;BME280;72396;45.194;9.142;2024-02-23T11:19:54;98949.69;;;12.00;69.19
79131;BME280;72396;45.194;9.142;2024-02-23T11:22:27;98943.66;;;11.98;68.76
79131;BME280;72396;45.194;9.142;2024-02-23T11:24:52;98922.38;;;11.73;68.50
79131;BME280;72396;45.194;9.142;2024-02-23T11:27:18;98934.88;;;11.84;68.93
79131;BME280;72396;45.194;9.142;2024-02-23T11:29:47;98949.16;;;11.94;68.82
79131;BME280;72396;45.194;9.142;2024-02-23T11:32:15;98944.41;;;12.00;68.67
79131;BME280;72396;45.194;9.142;2024-02-23T11:34:41;98923.47;;;11.97;68.86
79131;BME280;72396;45.194;9.142;2024-02-23T11:37:10;98926.28;;;12.08;68.75
79131;BME280;72396;45.194;9.142;2024-02-23T11:39:39;98920.34;;;12.17;68.46
79131;BME280;72396;45.194;9.142;2024-02-23T11:42:06;98908.09;;;12.16;68.60
79131;BME280;72396;45.194;9.142;2024-02-23T11:44:31;98908.72;;;12.20;68.26
79131;BME280;72396;45.194;9.142;2024-02-23T11:46:58;98904.31;;;12.20;68.34
79131;BME280;72396;45.194;9.142;2024-02-23T11:49:30;98896.91;;;12.26;68.64
79131;BME280;72396;45.194;9.142;2024-02-23T11:51:55;98894.75;;;12.31;68.29
79131;BME280;72396;45.194;9.142;2024-02-23T11:54:22;98893.81;;;12.32;68.57
79131;BME280;72396;45.194;9.142;2024-02-23T11:56:48;98903.97;;;12.38;68.11
79131;BME280;72396;45.194;9.142;2024-02-23T11:59:15;98890.84;;;12.36;68.43
79131;BME280;72396;45.194;9.142;2024-02-23T12:01:40;98875.22;;;12.33;68.59
79131;BME280;72396;45.194;9.142;2024-02-23T12:04:06;98883.44;;;12.42;68.76
79131;BME280;72396;45.194;9.142;2024-02-23T12:06:33;98878.50;;;12.37;68.62
79131;BME280;72396;45.194;9.142;2024-02-23T12:08:59;98872.56;;;12.33;68.05
79131;BME280;72396;45.194;9.142;2024-02-23T12:11:25;98860.41;;;12.31;67.72
79131;BME280;72396;45.194;9.142;2024-02-23T12:13:51;98840.34;;;12.15;67.79
79131;BME280;72396;45.194;9.142;2024-02-23T12:16:16;98853.22;;;12.33;67.79
79131;BME280;72396;45.194;9.142;2024-02-23T12:18:41;98849.84;;;12.31;67.63
79131;BME280;72396;45.194;9.142;2024-02-23T12:21:08;98867.47;;;12.43;68.31
79131;BME280;72396;45.194;9.142;2024-02-23T12:23:49;98857.00;;;12.55;67.94
79131;BME280;72396;45.194;9.142;2024-02-23T12:26:16;98855.00;;;12.45;67.99
79131;BME280;72396;45.194;9.142;2024-02-23T12:28:42;98864.19;;;12.53;67.75
79131;BME280;72396;45.194;9.142;2024-02-23T12:31:08;98867.56;;;12.55;68.40
79131;BME280;72396;45.194;9.142;2024-02-23T12:33:35;98859.19;;;12.61;68.54
79131;BME280;72396;45.194;9.142;2024-02-23T12:36:02;98846.06;;;12.59;68.13
79131;BME280;72396;45.194;9.142;2024-02-23T12:38:28;98843.41;;;12.59;67.98
79131;BME280;72396;45.194;9.142;2024-02-23T12:40:53;98844.38;;;12.58;68.18
79131;BME280;72396;45.194;9.142;2024-02-23T12:43:19;98838.50;;;12.55;68.55
79131;BME280;72396;45.194;9.142;2024-02-23T12:45:53;98856.88;;;12.56;68.12
79131;BME280;72396;45.194;9.142;2024-02-23T12:48:19;98862.38;;;12.53;67.76
79131;BME280;72396;45.194;9.142;2024-02-23T12:50:46;98852.31;;;12.58;67.72
79131;BME280;72396;45.194;9.142;2024-02-23T12:53:30;98831.50;;;12.54;67.58